Terminal Aerodrome Forecast
Issued by NWS

Home | Current Version | Previous Version | Text Only | Print | Product List | Glossary On
Versions: 1 2 3 4 5 6 7 8 9 10 11 12 13 14 15
000
FTUS42 KGSP 171743 RRA
TAFAND
TAF
KAND 171743Z 1718/1818 05005KT 6SM -RADZ OVC010
      TEMPO 1718/1720 2SM -DZ OVC008
     FM172000 VRB04KT 4SM -RADZ OVC008
     FM180100 27006KT 4SM BR SCT008 BKN025
     FM180900 VRB03KT 5SM BR FEW004 SCT008
     FM181400 06006KT P6SM SCT250=

USA.gov is the U.S. government's official web portal to all federal, state and local government web resources and services.